Time;durP1;ratioP1;P1;durP2;ratioP2;P2;SDS_P1;SDS_P2;PMS_P1;PMS_P2;Temp;Humidity;BMP_temperature;BMP_pressure;BME280_temperature;BME280_humidity;BME280_pressure;Samples;Min_cycle;Max_cycle;Signal;HPM_P1;HPM_P2
2022/04/12 00:00:41;;;;;;;;;4.75;3.00;;;;;16.60;56.96;100457.66;5030713;28;45408;-73
2022/04/12 00:03:08;;;;;;;;;6.25;3.00;;;;;16.59;56.61;100455.97;5030095;28;46682;-73
2022/04/12 00:05:35;;;;;;;;;3.00;2.75;;;;;16.57;57.00;100453.41;5034086;28;45360;-73
2022/04/12 00:08:01;;;;;;;;;3.00;2.75;;;;;16.53;57.34;100445.78;5030668;28;45325;-73
2022/04/12 00:10:28;;;;;;;;;4.00;4.00;;;;;16.53;57.57;100443.97;5034311;28;45721;-73
2022/04/12 00:12:55;;;;;;;;;3.75;3.00;;;;;16.47;57.37;100436.47;5030324;28;46139;-73
2022/04/12 00:15:20;;;;;;;;;4.00;3.00;;;;;16.39;57.61;100428.22;5030123;28;45317;-73
2022/04/12 00:20:33;;;;;;;;;6.00;3.25;;;;;16.38;58.02;100439.78;5029765;28;45452;-73
2022/04/12 00:22:59;;;;;;;;;3.50;3.00;;;;;16.38;57.62;100445.09;5030725;28;45855;-73
2022/04/12 00:25:25;;;;;;;;;3.50;3.00;;;;;16.37;57.74;100443.41;5034074;28;45762;-72
2022/04/12 00:27:52;;;;;;;;;3.00;2.00;;;;;16.36;57.86;100449.66;5030535;28;45456;-73
2022/04/12 00:30:19;;;;;;;;;5.00;3.00;;;;;16.28;57.35;100444.91;5029757;28;45422;-73
2022/04/12 00:32:44;;;;;;;;;2.25;2.25;;;;;16.24;58.04;100456.69;5029669;28;46261;-73
2022/04/12 00:35:11;;;;;;;;;4.00;2.50;;;;;16.20;57.79;100459.66;5033470;28;49783;-73
2022/04/12 00:37:36;;;;;;;;;3.50;2.00;;;;;16.14;58.14;100463.59;5033791;28;45382;-73
2022/04/12 00:40:04;;;;;;;;;3.00;3.00;;;;;16.07;58.14;100462.31;5030974;28;45420;-73
2022/04/12 00:42:29;;;;;;;;;4.75;3.00;;;;;16.02;58.25;100452.03;5032454;28;46582;-73
2022/04/12 00:44:54;;;;;;;;;3.00;3.00;;;;;15.96;58.24;100446.31;5029618;28;45437;-72
2022/04/12 00:47:20;;;;;;;;;3.50;3.00;;;;;15.91;58.79;100436.03;5029419;28;50037;-73
2022/04/12 00:49:45;;;;;;;;;3.25;2.25;;;;;15.86;58.17;100433.72;5032228;28;45566;-73
2022/04/12 00:52:11;;;;;;;;;4.00;3.00;;;;;15.82;58.50;100442.00;5031576;28;46382;-73
2022/04/12 00:54:38;;;;;;;;;5.00;3.50;;;;;15.77;59.11;100434.38;5029988;28;45296;-73
2022/04/12 00:57:04;;;;;;;;;2.00;2.00;;;;;15.72;59.53;100425.91;5029534;28;45516;-72
2022/04/12 00:59:33;;;;;;;;;5.00;4.00;;;;;15.69;59.00;100426.09;5029529;28;45421;-72
2022/04/12 01:01:58;;;;;;;;;2.50;1.00;;;;;15.65;59.11;100424.59;5030002;28;46085;-73
2022/04/12 01:04:24;;;;;;;;;4.25;3.00;;;;;15.59;59.13;100432.94;5033209;28;45393;-73
2022/04/12 01:06:50;;;;;;;;;3.00;3.00;;;;;15.58;59.72;100431.25;5022209;28;45382;-73
2022/04/12 01:09:16;;;;;;;;;4.00;3.25;;;;;15.53;59.77;100430.72;5029373;28;45443;-73
2022/04/12 01:11:44;;;;;;;;;3.25;3.25;;;;;15.51;59.65;100416.75;5030896;28;47249;-73
2022/04/12 01:14:09;;;;;;;;;4.25;3.00;;;;;15.47;60.24;100415.25;5019010;28;45516;-73
2022/04/12 01:16:35;;;;;;;;;3.75;3.75;;;;;15.42;59.54;100407.63;5033328;28;45448;-72
2022/04/12 01:19:00;;;;;;;;;4.00;4.00;;;;;15.38;60.05;100400.84;5030472;28;45461;-73
2022/04/12 01:21:31;;;;;;;;;2.00;2.00;;;;;15.37;60.44;100407.09;5029141;28;45462;-73
2022/04/12 01:24:03;;;;;;;;;4.25;3.00;;;;;15.30;60.73;100401.38;5030856;28;45799;-72
2022/04/12 01:26:28;;;;;;;;;4.00;3.00;;;;;15.30;60.56;100419.06;5032961;28;45359;-72
2022/04/12 01:28:54;;;;;;;;;3.00;3.00;;;;;15.22;60.49;100416.91;5034159;28;45568;-73
2022/04/12 01:31:20;;;;;;;;;5.25;4.75;;;;;15.23;60.70;100418.59;5035816;28;45407;-73
2022/04/12 01:33:45;;;;;;;;;4.00;2.50;;;;;15.20;61.05;100421.47;5033204;28;45393;-72
2022/04/12 01:36:10;;;;;;;;;3.00;3.00;;;;;15.16;61.16;100424.44;5034176;28;45405;-73
2022/04/12 01:38:36;;;;;;;;;8.00;4.00;;;;;15.10;61.30;100415.09;5032521;28;45312;-73
2022/04/12 01:41:02;;;;;;;;;2.00;2.00;;;;;15.08;61.12;100414.34;5036067;28;51274;-72
2022/04/12 01:43:28;;;;;;;;;5.75;4.00;;;;;15.04;61.21;100418.16;5036988;28;45409;-72
2022/04/12 01:45:54;;;;;;;;;3.50;3.50;;;;;15.01;61.47;100413.91;5032838;28;45373;-73
2022/04/12 01:48:20;;;;;;;;;4.25;3.00;;;;;14.97;61.47;100422.16;5032823;28;45466;-72
2022/04/12 01:50:45;;;;;;;;;5.00;3.00;;;;;14.90;61.59;100419.06;5032068;28;46044;-72
2022/04/12 01:53:10;;;;;;;;;5.50;5.00;;;;;14.89;61.67;100422.66;5032316;28;45540;-72
2022/04/12 01:55:36;;;;;;;;;4.00;3.00;;;;;14.85;61.85;100429.94;5035866;28;45718;-73
2022/04/12 01:58:01;;;;;;;;;4.50;3.00;;;;;14.84;61.97;100430.91;5033646;28;45334;-72
2022/04/12 02:00:26;;;;;;;;;4.75;4.00;;;;;14.81;61.71;100431.09;5032164;28;45436;-72
2022/04/12 02:02:52;;;;;;;;;3.75;3.25;;;;;14.78;61.79;100426.00;5031762;28;45286;-73
2022/04/12 02:05:17;;;;;;;;;3.00;3.00;;;;;14.73;61.99;100420.19;5032381;28;45309;-73
2022/04/12 02:07:43;;;;;;;;;3.00;3.00;;;;;14.74;61.98;100415.72;5030540;28;45441;-73
2022/04/12 02:10:09;;;;;;;;;3.75;3.25;;;;;14.73;62.04;100420.19;5033428;28;47223;-73
2022/04/12 02:12:34;;;;;;;;;4.25;3.00;;;;;14.70;61.70;100401.84;5036387;28;45775;-72
2022/04/12 02:15:00;;;;;;;;;3.00;2.00;;;;;14.74;61.61;100413.09;5031957;28;45520;-72
2022/04/12 02:17:25;;;;;;;;;5.25;4.00;;;;;14.73;61.59;100404.31;5036256;28;45805;-73
2022/04/12 02:19:51;;;;;;;;;4.00;2.75;;;;;14.72;61.77;100409.66;5033867;28;46228;-72
2022/04/12 02:22:16;;;;;;;;;4.25;3.00;;;;;14.73;61.82;100420.19;5034493;28;45641;-72
2022/04/12 02:24:41;;;;;;;;;8.50;3.75;;;;;14.74;61.82;100421.88;5032488;28;45381;-72
2022/04/12 02:27:07;;;;;;;;;5.00;4.75;;;;;14.73;62.32;100409.59;5032006;28;45275;-72
2022/04/12 02:29:32;;;;;;;;;3.25;2.75;;;;;14.70;61.76;100399.19;5031419;28;45314;-72
2022/04/12 02:31:57;;;;;;;;;5.00;3.50;;;;;14.70;61.92;100409.78;5032512;28;45488;-72
2022/04/12 02:34:23;;;;;;;;;5.00;2.00;;;;;14.68;61.85;100411.69;5034910;28;46744;-73
2022/04/12 02:36:48;;;;;;;;;2.75;2.75;;;;;14.66;61.69;100403.00;5031844;28;45312;-72
2022/04/12 02:39:14;;;;;;;;;3.00;3.00;;;;;14.65;61.74;100403.09;5031207;28;46012;-72
2022/04/12 02:41:39;;;;;;;;;3.00;3.00;;;;;14.63;61.50;100410.28;5031630;28;45338;-72
2022/04/12 02:44:05;;;;;;;;;5.00;4.00;;;;;14.63;61.78;100416.44;5034258;28;45401;-72
2022/04/12 02:46:30;;;;;;;;;4.00;4.00;;;;;14.60;62.14;100411.31;5022544;28;45589;-72
2022/04/12 02:48:55;;;;;;;;;4.00;3.00;;;;;14.59;62.25;100423.69;5031821;28;46116;-72
2022/04/12 02:51:21;;;;;;;;;5.00;4.00;;;;;14.53;62.51;100412.69;5030669;28;45220;-72
2022/04/12 02:53:46;;;;;;;;;4.00;4.00;;;;;14.51;62.34;100412.78;5031229;28;45825;-72
2022/04/12 02:56:12;;;;;;;;;2.00;2.00;;;;;14.51;62.43;100411.91;5031403;28;45434;-72
2022/04/12 02:58:37;;;;;;;;;2.75;2.75;;;;;14.49;62.19;100411.19;5034771;28;47210;-72
2022/04/12 03:01:03;;;;;;;;;4.25;3.00;;;;;14.51;61.92;100402.22;5032241;28;45425;-72
2022/04/12 03:03:28;;;;;;;;;4.50;3.00;;;;;14.54;62.02;100411.72;5031101;28;50045;-72
2022/04/12 03:05:53;;;;;;;;;3.00;3.00;;;;;14.54;62.05;100411.72;5031367;28;45403;-73
2022/04/12 03:08:19;;;;;;;;;3.50;3.50;;;;;14.52;62.20;100405.69;5030812;28;49071;-72
2022/04/12 03:10:44;;;;;;;;;3.00;2.75;;;;;14.53;61.86;100404.75;5033671;28;45350;-72
2022/04/12 03:13:09;;;;;;;;;5.00;4.25;;;;;14.51;61.95;100399.56;5033227;28;45409;-73
2022/04/12 03:15:35;;;;;;;;;3.50;1.75;;;;;14.52;62.00;100388.03;5031458;28;45397;-72
2022/04/12 03:18:00;;;;;;;;;3.00;3.00;;;;;14.53;61.62;100380.94;5012887;28;46200;-72
2022/04/12 03:20:26;;;;;;;;;4.50;4.00;;;;;14.53;61.84;100380.94;5031016;28;45338;-72
2022/04/12 03:22:51;;;;;;;;;3.75;2.75;;;;;14.50;61.63;100378.50;5032643;28;45830;-72
2022/04/12 03:25:16;;;;;;;;;5.25;3.00;;;;;14.45;61.34;100381.41;5033622;28;45658;-72
2022/04/12 03:27:42;;;;;;;;;3.50;3.50;;;;;14.47;61.31;100378.69;5031334;28;45545;-72
2022/04/12 03:30:08;;;;;;;;;2.75;2.75;;;;;14.46;61.27;100379.59;5030953;28;45445;-72
2022/04/12 03:32:33;;;;;;;;;4.25;1.25;;;;;14.48;61.08;100388.34;5030460;28;45298;-73
2022/04/12 03:34:58;;;;;;;;;3.75;3.75;;;;;14.47;61.12;100387.50;5033419;28;45368;-73
2022/04/12 03:37:24;;;;;;;;;5.75;2.75;;;;;14.50;61.11;100387.28;5023060;28;46038;-73
2022/04/12 03:39:51;;;;;;;;;6.00;5.00;;;;;14.48;60.77;100383.03;5030701;28;45409;-72
2022/04/12 03:42:18;;;;;;;;;3.75;3.75;;;;;14.49;60.78;100384.72;5034303;28;45500;-72
2022/04/12 03:44:44;;;;;;;;;7.00;3.00;;;;;14.51;60.52;100388.13;5030458;28;45843;-72
2022/04/12 03:47:09;;;;;;;;;3.00;2.00;;;;;14.50;60.59;100397.00;5029684;28;45543;-72
2022/04/12 03:49:35;;;;;;;;;3.00;3.00;;;;;14.49;60.66;100395.31;5034652;28;45494;-72
2022/04/12 03:52:00;;;;;;;;;3.00;3.00;;;;;14.46;59.91;100400.75;5031119;28;56621;-72
2022/04/12 03:54:25;;;;;;;;;2.50;2.50;;;;;14.50;60.42;100399.66;5030600;28;45242;-72
2022/04/12 03:56:51;;;;;;;;;2.00;2.00;;;;;14.50;60.51;100394.34;5031091;28;50900;-72
2022/04/12 03:59:16;;;;;;;;;3.00;2.00;;;;;14.52;60.54;100392.47;5020644;28;45378;-72
2022/04/12 04:01:42;;;;;;;;;3.00;1.75;;;;;14.53;60.31;100399.47;5033515;28;45475;-72
2022/04/12 04:04:07;;;;;;;;;5.00;2.50;;;;;14.51;60.23;100396.03;5032036;28;45456;-72
2022/04/12 04:06:33;;;;;;;;;2.50;2.50;;;;;14.51;60.03;100398.69;5029745;28;45434;-72
2022/04/12 04:08:58;;;;;;;;;2.50;2.50;;;;;14.48;59.91;100393.63;5026305;28;45295;-73
2022/04/12 04:11:23;;;;;;;;;3.50;3.50;;;;;14.49;60.02;100387.38;5031081;28;45361;-72
2022/04/12 04:13:48;;;;;;;;;6.75;3.00;;;;;14.46;59.98;100375.19;5019173;28;45525;-72
2022/04/12 04:16:14;;;;;;;;;2.00;2.00;;;;;14.42;59.78;100386.91;5032175;28;46036;-72
2022/04/12 04:18:39;;;;;;;;;3.50;3.00;;;;;14.39;59.71;100384.44;5029718;28;61383;-73
2022/04/12 04:21:04;;;;;;;;;4.00;4.00;;;;;14.32;59.68;100380.50;5030392;28;45381;-72
2022/04/12 04:23:30;;;;;;;;;5.00;2.25;;;;;14.35;59.69;100391.75;5012132;28;45334;-72
2022/04/12 04:25:55;;;;;;;;;4.75;3.50;;;;;14.35;59.88;100382.94;5030906;28;49526;-72
2022/04/12 04:28:23;;;;;;;;;2.00;2.00;;;;;14.33;59.75;100393.63;5033429;28;45278;-72
2022/04/12 04:30:49;;;;;;;;;5.25;1.75;;;;;14.36;59.57;100392.59;5030929;28;45347;-72
2022/04/12 04:33:19;;;;;;;;;4.00;4.00;;;;;14.33;59.40;100396.25;5016311;28;45438;-72
2022/04/12 04:35:48;;;;;;;;;3.00;3.00;;;;;14.29;59.45;100405.31;5030201;28;46412;-73
2022/04/12 04:38:14;;;;;;;;;4.00;3.75;;;;;14.27;59.41;100390.53;5025824;28;46024;-73
2022/04/12 04:40:39;;;;;;;;;3.75;3.00;;;;;14.20;59.43;100405.94;5033487;28;45645;-72
2022/04/12 04:43:05;;;;;;;;;3.00;3.00;;;;;14.15;59.53;100394.81;5037620;28;45434;-73
2022/04/12 04:45:31;;;;;;;;;1.50;1.50;;;;;14.07;59.60;100400.56;5030239;28;45446;-73
2022/04/12 04:47:59;;;;;;;;;3.50;2.50;;;;;13.98;59.59;100390.56;5029475;28;45472;-73
2022/04/12 04:50:27;;;;;;;;;3.75;2.25;;;;;13.96;59.53;100407.47;5029883;28;45417;-73
2022/04/12 04:52:53;;;;;;;;;3.25;2.00;;;;;13.92;59.76;100420.00;5031528;28;45580;-72
2022/04/12 04:55:19;;;;;;;;;2.75;2.25;;;;;13.89;59.89;100414.94;5032577;28;45500;-73
2022/04/12 04:57:46;;;;;;;;;4.00;2.75;;;;;13.86;60.07;100425.66;5031986;28;45492;-72
2022/04/12 05:00:16;;;;;;;;;3.25;3.00;;;;;13.83;60.27;100423.19;5033002;28;45520;-72
2022/04/12 05:02:44;;;;;;;;;3.00;2.75;;;;;13.80;60.43;100423.41;5032850;28;45768;-72
2022/04/12 05:05:10;;;;;;;;;3.75;3.75;;;;;13.75;60.29;100428.97;5018917;28;47052;-73
2022/04/12 05:07:36;;;;;;;;;4.50;3.00;;;;;13.70;60.42;100422.28;5036718;28;45879;-72
2022/04/12 05:10:01;;;;;;;;;4.25;4.25;;;;;13.65;60.34;100430.47;5033934;28;45507;-72
2022/04/12 05:12:27;;;;;;;;;4.00;3.00;;;;;13.63;60.74;100432.38;5036420;28;45330;-72
2022/04/12 05:14:52;;;;;;;;;2.00;2.00;;;;;13.62;60.68;100443.00;5032334;28;54395;-72
2022/04/12 05:17:25;;;;;;;;;3.00;2.00;;;;;13.62;60.62;100450.91;5032874;28;45342;-72
2022/04/12 05:19:51;;;;;;;;;4.25;2.50;;;;;13.60;60.78;100458.09;5034849;28;45721;-73
2022/04/12 05:22:18;;;;;;;;;3.50;3.00;;;;;13.55;61.03;100461.00;5035592;28;45495;-73
2022/04/12 05:24:44;;;;;;;;;3.50;2.50;;;;;13.58;60.60;100463.47;5033261;28;46196;-73
2022/04/12 05:27:09;;;;;;;;;5.00;4.00;;;;;13.56;60.90;100458.25;5032577;28;45312;-73
2022/04/12 05:29:34;;;;;;;;;3.00;3.00;;;;;13.56;60.94;100460.06;5032645;28;45385;-72
2022/04/12 05:32:00;;;;;;;;;5.75;5.25;;;;;13.58;60.92;100456.41;5032888;28;45495;-73
2022/04/12 05:34:25;;;;;;;;;5.25;4.75;;;;;13.55;61.13;100463.66;5036366;28;51585;-72
2022/04/12 05:36:50;;;;;;;;;3.50;3.50;;;;;13.59;61.39;100467.81;5036680;28;45505;-72
2022/04/12 05:39:15;;;;;;;;;5.50;3.25;;;;;13.62;61.26;100462.31;5032466;28;45796;-72
2022/04/12 05:41:41;;;;;;;;;5.00;4.00;;;;;13.66;61.33;100457.72;5032565;28;45434;-72
2022/04/12 05:44:07;;;;;;;;;4.75;4.75;;;;;13.73;61.45;100465.19;5032178;28;45921;-73
2022/04/12 05:46:32;;;;;;;;;4.00;4.00;;;;;13.81;61.40;100460.28;5037033;28;45589;-72
2022/04/12 05:48:57;;;;;;;;;6.25;4.00;;;;;13.89;61.05;100454.56;5033221;28;45764;-73
2022/04/12 05:51:22;;;;;;;;;10.25;6.00;;;;;13.98;61.30;100461.03;5032293;28;45753;-72
2022/04/12 05:53:48;;;;;;;;;6.00;4.75;;;;;14.05;60.77;100468.50;5032089;28;54115;-73
2022/04/12 05:56:13;;;;;;;;;7.00;3.00;;;;;14.13;60.69;100472.47;5032441;28;53008;-73
2022/04/12 05:58:40;;;;;;;;;3.25;3.00;;;;;14.22;60.47;100472.75;5035056;28;45554;-72
2022/04/12 06:01:06;;;;;;;;;7.00;3.25;;;;;14.28;60.62;100480.28;5030829;28;45929;-72
2022/04/12 06:03:31;;;;;;;;;7.25;7.00;;;;;14.36;60.56;100479.81;5031509;28;46472;-72
2022/04/12 06:05:57;;;;;;;;;4.00;4.00;;;;;14.47;59.80;100487.97;5028036;28;45330;-72
2022/04/12 06:08:22;;;;;;;;;7.75;4.00;;;;;14.56;59.82;100490.03;5038142;28;45627;-72
2022/04/12 06:10:47;;;;;;;;;4.00;4.00;;;;;14.67;59.75;100494.63;5033105;28;45514;-74
2022/04/12 06:13:13;;;;;;;;;11.75;5.00;;;;;14.77;59.44;100501.03;5020239;28;46146;-73
2022/04/12 06:15:38;;;;;;;;;5.00;5.00;;;;;14.88;59.23;100484.47;5025190;28;45431;-73
2022/04/12 06:18:04;;;;;;;;;5.50;5.50;;;;;14.98;59.11;100484.69;5031155;28;45299;-73
2022/04/12 06:20:29;;;;;;;;;6.25;5.25;;;;;15.08;59.50;100484.00;5031509;28;45555;-73
2022/04/12 06:22:54;;;;;;;;;3.50;3.25;;;;;15.18;58.78;100488.69;5032962;28;46142;-73
2022/04/12 06:25:20;;;;;;;;;3.75;3.00;;;;;15.25;58.49;100488.19;5035182;28;45441;-73
2022/04/12 06:27:50;;;;;;;;;5.00;5.00;;;;;15.30;58.04;100485.25;5031206;28;45516;-73
2022/04/12 06:30:23;;;;;;;;;5.50;4.00;;;;;15.39;58.01;100503.16;5029401;28;45437;-74
2022/04/12 06:32:49;;;;;;;;;4.75;4.00;;;;;15.48;57.76;100501.69;5029572;28;46261;-74
2022/04/12 06:35:15;;;;;;;;;6.00;4.25;;;;;15.59;57.74;100512.41;5036986;28;45556;-73
2022/04/12 06:37:42;;;;;;;;;5.00;3.00;;;;;15.70;57.66;100515.22;5033863;28;45421;-74
2022/04/12 06:40:10;;;;;;;;;6.00;4.25;;;;;15.77;56.86;100513.88;5028258;28;45316;-74
2022/04/12 06:42:36;;;;;;;;;4.75;4.00;;;;;15.83;57.43;100518.75;5028248;28;46174;-72
2022/04/12 06:45:02;;;;;;;;;4.00;4.00;;;;;15.87;56.59;100527.34;5031891;28;45279;-72
2022/04/12 06:47:28;;;;;;;;;7.50;5.00;;;;;15.81;56.66;100525.94;5028409;28;45649;-72
2022/04/12 06:49:54;;;;;;;;;7.50;4.00;;;;;15.82;56.31;100529.44;5031757;28;45417;-73
2022/04/12 06:52:22;;;;;;;;;3.00;3.00;;;;;15.88;56.54;100531.69;5022985;28;46123;-74
2022/04/12 06:54:48;;;;;;;;;4.75;4.00;;;;;16.02;56.33;100531.56;5028250;28;45981;-70
2022/04/12 06:57:14;;;;;;;;;5.75;5.00;;;;;16.17;56.16;100534.97;5031422;28;45552;-73
2022/04/12 06:59:40;;;;;;;;;6.50;4.50;;;;;16.27;55.46;100541.31;5020775;28;45515;-73
2022/04/12 07:02:06;;;;;;;;;3.25;3.25;;;;;16.38;55.13;100549.38;5021327;28;46956;-73
2022/04/12 07:04:32;;;;;;;;;4.50;3.50;;;;;16.41;55.04;100551.81;5026390;28;45504;-73
2022/04/12 07:06:58;;;;;;;;;4.75;4.00;;;;;16.51;55.17;100561.78;5029632;28;45775;-73
2022/04/12 07:09:27;;;;;;;;;5.75;4.00;;;;;16.63;54.88;100566.22;5031695;28;45733;-74
2022/04/12 07:11:52;;;;;;;;;6.00;5.00;;;;;16.72;54.48;100564.75;5031885;28;45515;-74
2022/04/12 07:14:18;;;;;;;;;6.00;4.00;;;;;16.89;54.60;100567.88;5029859;28;45634;-74
2022/04/12 07:16:43;;;;;;;;;5.00;5.00;;;;;17.00;54.54;100575.06;5032281;28;45528;-74
2022/04/12 07:19:09;;;;;;;;;3.75;3.50;;;;;17.13;53.61;100575.91;5031144;28;45474;-74
2022/04/12 07:21:35;;;;;;;;;4.00;3.25;;;;;17.26;53.52;100580.31;5030737;28;47114;-74
2022/04/12 07:24:03;;;;;;;;;4.00;4.00;;;;;17.38;53.24;100577.59;5013700;28;45534;-73
2022/04/12 07:26:28;;;;;;;;;4.00;3.50;;;;;17.56;53.26;100574.53;5032172;28;45837;-74
2022/04/12 07:28:54;;;;;;;;;5.50;4.00;;;;;17.69;53.42;100564.66;5032304;28;45760;-73
2022/04/12 07:31:19;;;;;;;;;4.75;4.75;;;;;17.87;52.49;100576.59;5032045;28;45989;-72
2022/04/12 07:33:45;;;;;;;;;2.50;2.50;;;;;18.02;52.36;100581.72;5024991;28;45489;-73
2022/04/12 07:36:10;;;;;;;;;6.00;5.50;;;;;18.07;51.18;100591.06;5028967;28;45507;-72
2022/04/12 07:38:36;;;;;;;;;3.00;3.00;;;;;18.11;51.16;100589.81;5030336;28;45481;-72
2022/04/12 07:41:01;;;;;;;;;3.50;2.75;;;;;18.23;51.64;100585.41;5020674;28;46076;-73
2022/04/12 07:43:26;;;;;;;;;6.25;4.75;;;;;18.35;51.52;100579.13;5033526;28;45434;-73
2022/04/12 07:45:52;;;;;;;;;4.00;3.75;;;;;18.55;50.79;100582.03;5023171;28;45565;-74
2022/04/12 07:48:17;;;;;;;;;2.00;2.00;;;;;18.74;50.44;100575.19;5030154;28;45301;-74
2022/04/12 07:50:42;;;;;;;;;5.50;3.00;;;;;18.92;50.18;100570.19;5032161;28;47412;-74
2022/04/12 07:53:15;;;;;;;;;4.00;4.00;;;;;19.08;49.68;100576.94;5004496;28;45488;-73
2022/04/12 07:55:40;;;;;;;;;2.00;2.00;;;;;19.15;49.05;100578.13;4985768;28;45416;-74
2022/04/12 07:58:06;;;;;;;;;3.00;2.25;;;;;19.20;49.04;100581.25;4985083;28;45370;-73
2022/04/12 08:00:31;;;;;;;;;3.50;3.50;;;;;19.25;48.30;100565.75;4979730;28;45418;-74
2022/04/12 08:02:56;;;;;;;;;3.00;3.00;;;;;19.39;47.97;100570.78;4980565;28;46477;-75
2022/04/12 08:05:22;;;;;;;;;6.25;5.00;;;;;19.60;48.30;100556.69;4984844;28;45307;-74
2022/04/12 08:07:47;;;;;;;;;3.00;3.00;;;;;19.90;47.85;100566.59;4989832;28;45466;-75
2022/04/12 08:10:19;;;;;;;;;4.75;4.00;;;;;20.18;47.63;100559.75;4987765;28;45425;-73
2022/04/12 08:12:46;;;;;;;;;5.00;3.00;;;;;20.41;47.46;100555.06;4989134;28;45324;-73
2022/04/12 08:15:14;;;;;;;;;4.00;4.00;;;;;20.69;47.17;100553.56;4991526;28;45288;-72
2022/04/12 08:17:40;;;;;;;;;5.50;4.00;;;;;20.93;46.39;100554.03;4979684;28;45534;-74
2022/04/12 08:20:07;;;;;;;;;5.00;4.00;;;;;21.06;46.14;100549.28;4982072;28;45449;-73
2022/04/12 08:22:33;;;;;;;;;4.75;3.75;;;;;21.29;46.16;100563.22;4981431;28;47102;-73
2022/04/12 08:24:59;;;;;;;;;2.25;2.25;;;;;21.54;45.06;100561.03;4994470;27;45406;-72
2022/04/12 08:27:25;;;;;;;;;3.00;2.00;;;;;21.84;45.15;100562.72;4981578;28;45488;-73
2022/04/12 08:29:51;;;;;;;;;3.50;2.75;;;;;22.70;44.13;100563.47;4980285;28;45507;-73
2022/04/12 08:32:17;;;;;;;;;2.50;2.50;;;;;23.30;44.09;100563.00;4982635;28;45942;-73
2022/04/12 08:34:43;;;;;;;;;3.00;3.00;;;;;23.72;42.66;100557.91;4984630;28;45475;-73
2022/04/12 08:37:09;;;;;;;;;2.00;2.00;;;;;24.21;42.22;100550.19;4972235;28;45473;-73
2022/04/12 08:39:34;;;;;;;;;4.50;2.50;;;;;24.86;41.34;100541.63;5009472;27;45903;-73
2022/04/12 08:42:01;;;;;;;;;2.00;2.00;;;;;25.28;40.02;100541.59;4985365;27;46429;-73
2022/04/12 08:44:27;;;;;;;;;3.25;2.75;;;;;25.79;40.24;100541.44;4982976;27;45301;-72
2022/04/12 08:46:56;;;;;;;;;6.50;5.25;;;;;26.88;38.92;100543.53;4975161;28;45414;-72
2022/04/12 08:49:24;;;;;;;;;2.00;2.00;;;;;28.51;36.83;100548.50;4970097;28;45552;-72
2022/04/12 08:51:50;;;;;;;;;6.25;5.50;;;;;30.27;35.59;100542.59;4983661;27;46380;-72
2022/04/12 08:54:19;;;;;;;;;55.75;42.25;;;;;32.19;32.67;100550.41;4973662;28;45573;-72
2022/04/12 08:56:48;;;;;;;;;25.50;20.50;;;;;33.94;32.79;100549.16;4973604;28;45484;-72
2022/04/12 08:59:13;;;;;;;;;19.25;17.00;;;;;35.29;31.02;100540.00;4981141;28;45409;-71
2022/04/12 09:01:39;;;;;;;;;6.50;4.25;;;;;36.40;28.74;100554.78;4996981;27;47296;-74
2022/04/12 09:04:05;;;;;;;;;2.75;1.25;;;;;36.67;27.36;100549.63;4976719;28;45776;-74
2022/04/12 09:06:30;;;;;;;;;1.50;1.25;;;;;37.04;27.39;100544.63;4977290;28;45827;-74
2022/04/12 09:09:10;;;;;;;;;3.75;2.00;;;;;37.87;26.38;100553.22;4986601;28;45502;-74
2022/04/12 09:11:35;;;;;;;;;2.00;2.00;;;;;38.44;25.74;100555.72;4982430;28;46065;-74
2022/04/12 09:14:01;;;;;;;;;26.75;21.00;;;;;39.05;24.88;100555.63;4977171;27;45527;-74
2022/04/12 09:16:28;;;;;;;;;2.25;2.25;;;;;39.65;24.22;100538.94;4978277;28;45471;-72
2022/04/12 09:18:54;;;;;;;;;7.50;6.75;;;;;40.74;23.22;100553.09;4974627;28;45550;-74
2022/04/12 09:21:22;;;;;;;;;11.50;9.50;;;;;41.82;23.29;100549.44;4970825;28;45446;-74
2022/04/12 09:23:50;;;;;;;;;4.00;2.00;;;;;42.77;21.83;100550.56;4965368;28;45444;-70
2022/04/12 09:26:26;;;;;;;;;3.75;2.25;;;;;42.96;21.38;100548.75;4966885;28;46833;-69
2022/04/12 09:28:54;;;;;;;;;39.75;31.25;;;;;42.92;19.52;100562.34;4964637;28;45479;-72
2022/04/12 09:31:20;;;;;;;;;57.00;43.75;;;;;42.24;20.45;100551.03;4970911;28;46145;-75
2022/04/12 09:33:47;;;;;;;;;6.50;5.00;;;;;41.41;20.34;100541.13;4958280;28;45618;-72
2022/04/12 09:36:12;;;;;;;;;3.25;2.00;;;;;40.91;20.63;100544.59;4972298;28;45538;-72
2022/04/12 09:38:40;;;;;;;;;12.00;9.75;;;;;40.22;20.06;100544.84;4971144;28;45525;-72
2022/04/12 09:41:13;;;;;;;;;4.50;2.00;;;;;39.25;21.28;100557.78;4971461;28;46115;-72
2022/04/12 09:44:11;;;;;;;;;21.50;17.75;;;;;38.46;21.83;100545.31;4960767;28;46884;-72
2022/04/12 09:46:38;;;;;;;;;10.50;8.50;;;;;38.09;21.98;100547.78;4974043;28;45502;-73
2022/04/12 09:49:05;;;;;;;;;47.25;34.75;;;;;37.56;21.97;100541.75;4974169;28;45483;-71
2022/04/12 09:51:32;;;;;;;;;54.25;43.00;;;;;37.24;22.19;100535.94;4959766;28;46399;-71
2022/04/12 09:53:57;;;;;;;;;11.25;9.00;;;;;36.88;21.62;100533.59;4965020;28;45740;-71
2022/04/12 09:56:25;;;;;;;;;30.00;26.00;;;;;36.36;21.98;100525.38;4966525;28;45570;-72
2022/04/12 09:58:53;;;;;;;;;72.00;56.50;;;;;35.96;22.61;100521.50;4966399;28;45512;-72
2022/04/12 10:01:19;;;;;;;;;0.25;0.25;;;;;35.69;22.77;100523.00;4965514;28;46438;-72
2022/04/12 10:03:48;;;;;;;;;10.00;10.00;;;;;35.28;23.04;100530.97;4953702;28;45379;-72
2022/04/12 10:06:17;;;;;;;;;19.50;15.75;;;;;35.06;22.91;100531.75;4955273;28;45606;-72
2022/04/12 10:08:43;;;;;;;;;1.00;1.00;;;;;35.01;23.23;100522.34;4959090;28;45916;-72
2022/04/12 10:11:11;;;;;;;;;1.00;1.00;;;;;34.83;23.84;100536.03;4964435;27;46281;-71
2022/04/12 10:13:38;;;;;;;;;1.75;0.00;;;;;34.73;24.10;100520.19;4954335;28;45578;-72
2022/04/12 10:16:04;;;;;;;;;1.75;0.25;;;;;34.83;24.14;100527.00;4964468;28;45423;-71
2022/04/12 10:18:32;;;;;;;;;1.00;0.00;;;;;34.43;23.58;100517.38;4958719;28;45758;-71
2022/04/12 10:20:59;;;;;;;;;17.75;16.00;;;;;33.42;24.27;100509.53;4970768;28;45416;-71
2022/04/12 10:23:26;;;;;;;;;3.00;3.00;;;;;32.77;24.87;100498.75;4970018;28;45460;-71
2022/04/12 10:25:53;;;;;;;;;10.50;10.50;;;;;32.37;25.47;100504.38;4959258;28;45702;-72
2022/04/12 10:28:21;;;;;;;;;20.00;15.50;;;;;32.13;25.56;100496.88;4972371;28;45448;-71
2022/04/12 10:30:46;;;;;;;;;0.50;0.50;;;;;31.95;26.31;100501.13;4979859;28;47589;-72
2022/04/12 10:33:14;;;;;;;;;0.00;0.00;;;;;31.75;25.65;100497.56;4962677;28;46117;-71
2022/04/12 10:35:42;;;;;;;;;46.75;38.00;;;;;31.42;26.84;100494.81;4960216;28;45527;-72
2022/04/12 10:38:13;;;;;;;;;7.25;4.75;;;;;31.30;26.63;100488.34;4957027;28;45482;-71
2022/04/12 10:40:46;;;;;;;;;1.75;1.75;;;;;31.25;27.24;100477.25;4957195;28;47054;-71
2022/04/12 10:43:13;;;;;;;;;1.50;1.50;;;;;30.98;26.92;100479.09;4957199;28;45426;-71
2022/04/12 10:45:47;;;;;;;;;3.25;1.00;;;;;30.27;27.27;100480.25;4961877;28;45482;-71
2022/04/12 10:48:28;;;;;;;;;1.00;1.00;;;;;29.64;27.98;100491.06;4961236;28;45521;-71
2022/04/12 10:50:56;;;;;;;;;2.50;2.50;;;;;29.34;28.71;100514.72;4984352;28;46334;-72
2022/04/12 10:53:36;;;;;;;;;4.50;2.00;;;;;29.17;28.83;100518.69;4967047;28;45551;-72
2022/04/12 10:56:07;;;;;;;;;3.00;2.75;;;;;29.17;28.99;100518.69;4959208;28;45328;-72
2022/04/12 10:58:33;;;;;;;;;48.50;37.00;;;;;29.09;29.26;100516.13;4962784;28;45447;-71
2022/04/12 11:00:59;;;;;;;;;1.00;1.00;;;;;28.88;28.90;100516.91;4970629;28;46933;-71
2022/04/12 11:03:51;;;;;;;;;62.75;47.75;;;;;28.56;29.06;100518.19;4958622;28;45488;-71
2022/04/12 11:06:28;;;;;;;;;2.25;2.00;;;;;28.29;29.76;100519.63;4958194;28;45758;-72
2022/04/12 11:09:06;;;;;;;;;7.75;2.25;;;;;28.12;30.15;100513.59;4959346;28;45483;-72
2022/04/12 11:11:43;;;;;;;;;3.50;2.00;;;;;27.95;30.01;100529.13;4972384;28;47454;-72
2022/04/12 11:14:32;;;;;;;;;18.75;14.25;;;;;27.93;30.63;100535.72;4958739;28;45465;-72
2022/04/12 11:17:12;;;;;;;;;16.25;12.75;;;;;27.99;30.29;100543.13;4956907;28;45508;-71
2022/04/12 11:19:43;;;;;;;;;10.50;7.75;;;;;27.92;30.33;100545.69;4955344;28;45441;-71
2022/04/12 11:22:13;;;;;;;;;22.75;19.00;;;;;27.81;30.55;100554.25;4956153;28;46319;-72
2022/04/12 11:24:39;;;;;;;;;2.00;1.00;;;;;27.67;30.63;100550.47;4961007;28;45652;-72